Time;durP1;ratioP1;P1;durP2;ratioP2;P2;SDS_P1;SDS_P2;PMS_P1;PMS_P2;Temp;Humidity;BMP_temperature;BMP_pressure;BME280_temperature;BME280_humidity;BME280_pressure;Samples;Min_cycle;Max_cycle;Signal;HPM_P1;HPM_P2
2023/12/26 08:12:22;;;;;;;10.50;4.50;;;12.20;96.70;;;;;;5047772;28;20051;-77
2023/12/26 08:15:51;;;;;;;9.02;4.28;;;12.30;96.70;;;;;;4944587;28;20058;-77
2023/12/26 08:18:38;;;;;;;8.05;3.40;;;12.40;96.70;;;;;;4929645;28;20086;-77
2023/12/26 08:21:27;;;;;;;9.27;3.17;;;12.40;96.70;;;;;;4965783;28;20072;-78
2023/12/26 08:24:35;;;;;;;8.73;3.40;;;12.40;96.70;;;;;;4968113;28;20499;-77
2023/12/26 08:32:00;;;;;;;6.10;2.88;;;12.40;96.70;;;;;;4923345;29;20134;-79
2023/12/26 08:34:54;;;;;;;8.60;3.90;;;12.50;96.70;;;;;;4926140;29;20067;-77
2023/12/26 08:37:27;;;;;;;8.32;3.65;;;12.50;96.70;;;;;;4893690;29;20102;-77
2023/12/26 08:43:11;;;;;;;8.55;3.53;;;12.50;96.70;;;;;;4912186;29;20059;-78
2023/12/26 08:46:15;;;;;;;10.35;3.80;;;12.60;96.70;;;;;;4895412;29;20051;-78
2023/12/26 08:48:46;;;;;;;7.30;3.63;;;12.60;96.70;;;;;;4877016;29;20056;-78
2023/12/26 08:51:19;;;;;;;7.88;3.58;;;12.60;96.70;;;;;;4876444;29;20108;-77
2023/12/26 08:53:48;;;;;;;9.85;4.15;;;12.60;96.70;;;;;;4946528;28;20051;-78
2023/12/26 08:56:19;;;;;;;9.10;3.80;;;12.60;96.70;;;;;;4939563;28;20146;-78
2023/12/26 08:58:48;;;;;;;9.20;3.63;;;12.50;96.70;;;;;;4931349;29;20605;-78
2023/12/26 09:01:45;;;;;;;12.05;4.20;;;12.50;96.70;;;;;;4932622;29;20611;-78
2023/12/26 09:04:33;;;;;;;9.55;4.00;;;12.50;96.70;;;;;;4948018;28;20063;-77
2023/12/26 09:11:04;;;;;;;10.63;4.32;;;12.50;96.70;;;;;;4908794;29;20062;-79
2023/12/26 09:14:43;;;;;;;8.90;4.28;;;12.50;96.70;;;;;;4910084;29;20875;-79
2023/12/26 09:17:43;;;;;;;8.32;4.05;;;12.50;96.70;;;;;;4907839;29;20059;-77
2023/12/26 09:20:24;;;;;;;8.93;4.10;;;12.50;96.70;;;;;;4943171;28;20153;-78
2023/12/26 09:30:39;;;;;;;8.93;4.88;;;12.60;96.70;;;;;;4972811;28;20746;-79
2023/12/26 09:33:20;;;;;;;10.73;4.88;;;12.60;96.70;;;;;;4974225;28;20455;-77
2023/12/26 09:36:24;;;;;;;;;;;;;;;;;;;;;
2023/12/26 09:45:04;;;;;;;;;;;;;;;;;;;;;
2023/12/26 09:49:09;;;;;;;;;;;;;;;;;;;;;
2023/12/26 09:57:48;;;;;;;;;;;;;;;;;;;;;
2023/12/26 10:26:19;;;;;;;12.63;7.82;;;12.70;96.70;;;;;;5009436;28;20099;-80
2023/12/26 10:32:43;;;;;;;15.65;8.32;;;12.70;96.70;;;;;;5024311;28;20044;-78
2023/12/26 10:39:36;;;;;;;14.93;7.70;;;12.70;96.70;;;;;;5049866;28;20059;-77
2023/12/26 10:42:05;;;;;;;13.68;6.18;;;12.70;96.70;;;;;;5048386;28;20052;-78
2023/12/26 10:45:00;;;;;;;10.90;7.40;;;12.70;96.70;;;;;;5075111;28;20131;-78
2023/12/26 10:47:29;;;;;;;11.90;6.75;;;12.70;96.70;;;;;;5034535;28;20055;-77
2023/12/26 10:49:59;;;;;;;16.15;8.98;;;12.70;96.70;;;;;;5044552;28;20051;-77
2023/12/26 10:52:29;;;;;;;16.38;9.70;;;12.70;96.70;;;;;;5059138;28;20062;-77
2023/12/26 10:55:02;;;;;;;13.30;9.27;;;12.70;96.70;;;;;;5020215;28;20056;-78
2023/12/26 10:57:36;;;;;;;16.08;10.52;;;12.70;96.70;;;;;;5021521;28;20056;-77
2023/12/26 13:51:26;;;;;;;7.15;4.55;;;14.70;96.70;;;;;;5072762;28;20413;-86
2023/12/26 13:54:32;;;;;;;10.15;4.38;;;14.70;96.70;;;;;;5028450;28;20049;-87
2023/12/26 13:57:03;;;;;;;6.53;3.97;;;14.60;96.70;;;;;;5029227;28;20059;-87
2023/12/26 13:59:32;;;;;;;8.45;4.50;;;14.50;96.70;;;;;;5032874;28;20144;-87
2023/12/26 14:02:37;;;;;;;7.30;4.18;;;14.50;96.70;;;;;;5017580;28;20049;-86
2023/12/26 14:05:43;;;;;;;7.57;4.85;;;14.40;96.70;;;;;;5034800;28;20143;-87
2023/12/26 14:08:14;;;;;;;8.43;4.85;;;14.40;96.70;;;;;;5034568;28;20076;-86
2023/12/26 14:11:19;;;;;;;8.05;5.55;;;14.40;96.70;;;;;;5041514;28;20522;-86
2023/12/26 14:14:26;;;;;;;8.15;4.82;;;14.30;96.70;;;;;;5017361;28;20057;-87
2023/12/26 14:16:57;;;;;;;7.53;4.78;;;14.30;96.70;;;;;;5018500;28;20054;-87
2023/12/26 14:20:03;;;;;;;7.88;4.65;;;14.20;96.70;;;;;;5054099;28;20084;-86
2023/12/26 14:22:33;;;;;;;11.23;7.20;;;14.20;96.70;;;;;;5049477;28;20048;-86
2023/12/26 14:25:42;;;;;;;8.77;5.47;;;14.20;96.70;;;;;;5048660;28;20061;-87
2023/12/26 14:28:49;;;;;;;8.32;5.10;;;14.20;96.70;;;;;;5057732;28;20131;-86
2023/12/26 14:31:20;;;;;;;12.73;7.65;;;14.20;96.70;;;;;;5035830;28;20148;-87
2023/12/26 14:33:52;;;;;;;15.15;10.45;;;14.20;96.70;;;;;;5055873;28;20056;-87
2023/12/26 14:36:58;;;;;;;11.38;7.80;;;14.10;96.70;;;;;;5034288;28;20057;-87
2023/12/26 14:40:03;;;;;;;12.93;7.72;;;14.10;96.70;;;;;;5048050;28;20048;-86
2023/12/26 14:42:32;;;;;;;14.55;7.47;;;14.00;96.70;;;;;;5035944;28;20048;-87
2023/12/26 14:45:03;;;;;;;9.32;7.00;;;14.00;96.70;;;;;;5044176;28;20056;-87
2023/12/26 14:48:09;;;;;;;12.30;6.82;;;14.00;96.70;;;;;;5048237;28;20044;-86
2023/12/26 14:51:16;;;;;;;10.07;6.97;;;14.00;96.70;;;;;;5056229;28;20049;-87
2023/12/26 14:53:46;;;;;;;10.43;6.65;;;14.00;96.70;;;;;;5056167;28;20048;-87
2023/12/26 14:56:15;;;;;;;9.30;6.32;;;13.90;96.70;;;;;;5058347;28;20078;-87
2023/12/26 14:59:23;;;;;;;10.98;6.80;;;13.90;96.70;;;;;;5057084;28;20114;-87
2023/12/26 15:01:53;;;;;;;;;;;13.90;96.70;;;;;;5053057;28;20527;-86
2023/12/26 15:04:24;;;;;;;9.60;6.05;;;13.90;96.70;;;;;;5055912;28;20739;-87
2023/12/26 15:06:54;;;;;;;10.73;6.47;;;13.90;96.70;;;;;;5049758;28;20406;-87
2023/12/26 15:09:25;;;;;;;10.30;6.53;;;13.90;96.70;;;;;;5054577;28;20518;-87
2023/12/26 15:11:54;;;;;;;9.10;6.72;;;13.80;96.70;;;;;;5064217;28;20056;-87
2023/12/26 15:14:23;;;;;;;13.77;8.00;;;13.80;96.70;;;;;;5052911;28;20134;-87
2023/12/26 15:17:10;;;;;;;16.38;12.73;;;13.80;96.70;;;;;;5049308;28;20052;-87
2023/12/26 15:19:38;;;;;;;36.17;24.35;;;13.70;96.70;;;;;;5038090;28;20048;-87
2023/12/26 15:22:08;;;;;;;37.85;28.90;;;13.70;96.70;;;;;;5033987;28;20060;-85
2023/12/26 15:24:38;;;;;;;56.65;41.25;;;13.70;96.70;;;;;;5064214;28;20089;-87
2023/12/26 15:27:09;;;;;;;44.45;33.58;;;13.70;96.70;;;;;;5038627;28;20056;-87
2023/12/26 15:29:37;;;;;;;33.10;26.15;;;13.70;96.70;;;;;;5043374;28;20053;-87
2023/12/26 15:32:09;;;;;;;29.27;22.33;;;13.70;96.70;;;;;;5051430;28;20106;-87
2023/12/26 15:34:40;;;;;;;28.60;20.27;;;13.70;96.70;;;;;;5048881;28;20146;-87
2023/12/26 15:37:10;;;;;;;26.38;19.13;;;13.70;96.70;;;;;;5058122;28;20048;-87
2023/12/26 15:39:44;;;;;;;23.42;16.90;;;13.70;96.70;;;;;;5038756;28;20405;-86
2023/12/26 15:42:15;;;;;;;22.55;17.20;;;13.70;96.70;;;;;;5064544;28;20404;-87
2023/12/26 15:44:44;;;;;;;22.20;15.88;;;13.70;96.70;;;;;;5064680;28;20106;-85
2023/12/26 15:47:14;;;;;;;21.70;17.08;;;13.60;96.70;;;;;;5067716;28;20102;-87
2023/12/26 15:49:43;;;;;;;18.55;15.48;;;13.60;96.70;;;;;;5048224;28;20048;-86
2023/12/26 15:52:12;;;;;;;20.95;16.20;;;13.60;96.70;;;;;;5046303;28;20047;-87
2023/12/26 15:54:41;;;;;;;21.67;15.52;;;13.60;96.70;;;;;;5037489;28;20052;-88
2023/12/26 15:57:18;;;;;;;21.48;14.82;;;13.60;96.70;;;;;;5041979;28;20094;-86
2023/12/26 15:59:47;;;;;;;20.45;14.18;;;13.60;96.70;;;;;;5051571;28;20055;-85
2023/12/26 16:02:25;;;;;;;15.85;12.63;;;13.60;96.70;;;;;;5058703;28;20801;-88
2023/12/26 16:04:57;;;;;;;20.92;13.45;;;13.60;96.70;;;;;;5041902;28;20052;-89
2023/12/26 16:12:30;;;;;;;;;;;;;;;;;;;;;
2023/12/26 17:12:07;;;;;;;;;;;;;;;;;;;;;
2023/12/26 17:35:18;;;;;;;21.15;13.90;;;13.10;96.70;;;;;;4841139;29;20053;-83
2023/12/26 18:08:42;;;;;;;27.60;19.70;;;12.60;96.70;;;;;;5069350;28;20843;-83
2023/12/26 18:12:23;;;;;;;27.20;21.45;;;12.50;96.70;;;;;;5020659;28;20172;-82
2023/12/26 18:16:01;;;;;;;30.20;22.98;;;12.40;96.70;;;;;;4981138;28;20068;-84
2023/12/26 18:28:19;;;;;;;23.30;19.45;;;12.20;96.70;;;;;;5011488;28;20052;-90
2023/12/26 18:30:50;;;;;;;23.88;18.98;;;12.10;96.70;;;;;;5037019;28;20068;-88
2023/12/26 18:33:19;;;;;;;25.40;19.23;;;12.10;96.70;;;;;;5053032;28;20099;-87
2023/12/26 18:35:49;;;;;;;25.83;20.33;;;12.10;96.70;;;;;;5057180;28;20129;-87
2023/12/26 18:38:18;;;;;;;26.17;20.85;;;12.10;96.70;;;;;;5066085;28;20044;-87
2023/12/26 18:40:47;;;;;;;23.88;20.13;;;12.10;96.70;;;;;;5036829;28;20064;-87
2023/12/26 18:43:19;;;;;;;26.10;20.42;;;12.10;96.70;;;;;;5045364;28;20063;-86
2023/12/26 18:45:49;;;;;;;24.38;20.50;;;12.10;96.70;;;;;;5042903;28;20512;-87
2023/12/26 18:48:20;;;;;;;25.50;19.60;;;12.10;96.70;;;;;;5065925;28;20048;-87
2023/12/26 18:50:50;;;;;;;24.95;19.35;;;12.00;96.70;;;;;;5046372;28;20063;-87
2023/12/26 18:53:19;;;;;;;25.58;19.27;;;12.00;96.70;;;;;;5054649;28;20083;-87
2023/12/26 18:55:48;;;;;;;21.52;18.60;;;12.00;96.70;;;;;;5054352;28;20056;-86
2023/12/26 18:58:21;;;;;;;22.17;16.60;;;11.90;96.70;;;;;;5052854;28;20059;-88
2023/12/26 19:00:51;;;;;;;22.67;16.23;;;11.90;96.70;;;;;;5048484;28;20056;-87
2023/12/26 19:03:19;;;;;;;20.55;14.98;;;11.90;96.70;;;;;;5036963;28;20057;-88
2023/12/26 19:05:48;;;;;;;21.35;15.60;;;11.90;96.70;;;;;;5062256;28;20056;-88
2023/12/26 19:08:17;;;;;;;29.70;17.15;;;11.90;96.70;;;;;;5053055;28;20526;-88
2023/12/26 19:10:48;;;;;;;29.48;19.00;;;11.80;96.70;;;;;;5039696;28;20063;-87
2023/12/26 19:13:20;;;;;;;27.17;17.60;;;11.80;96.70;;;;;;5046295;28;20133;-87
2023/12/26 19:15:50;;;;;;;35.42;21.42;;;11.80;96.70;;;;;;5055950;28;20064;-87
2023/12/26 19:18:19;;;;;;;34.65;19.13;;;11.70;96.70;;;;;;5054477;28;20063;-87
2023/12/26 19:20:48;;;;;;;31.45;17.98;;;11.70;96.70;;;;;;5035020;28;20059;-88
2023/12/26 19:23:19;;;;;;;28.00;18.90;;;11.70;96.70;;;;;;5039152;28;20109;-88
2023/12/26 19:25:48;;;;;;;25.08;17.45;;;11.70;96.70;;;;;;5034761;28;20754;-86
2023/12/26 19:28:17;;;;;;;27.65;17.05;;;11.70;96.70;;;;;;5050966;28;20052;-87
2023/12/26 19:30:49;;;;;;;24.95;17.63;;;11.60;96.70;;;;;;5049919;28;20053;-87
2023/12/26 19:33:19;;;;;;;22.10;16.88;;;11.60;96.70;;;;;;5025260;28;20805;-87
2023/12/26 19:35:49;;;;;;;24.92;17.50;;;11.60;96.70;;;;;;5034691;28;20056;-87
2023/12/26 19:38:19;;;;;;;24.17;17.13;;;11.60;96.70;;;;;;5029225;28;20139;-87
2023/12/26 19:40:50;;;;;;;23.90;15.48;;;11.50;96.70;;;;;;5029618;28;20056;-87
2023/12/26 19:43:20;;;;;;;21.52;15.00;;;11.50;96.70;;;;;;5034865;28;20511;-87
2023/12/26 19:45:51;;;;;;;21.77;14.38;;;11.50;96.70;;;;;;5034498;28;20628;-88
2023/12/26 19:48:22;;;;;;;18.55;13.60;;;11.50;96.70;;;;;;5067199;28;20611;-87
2023/12/26 19:50:51;;;;;;;16.20;13.13;;;11.50;96.70;;;;;;5063990;28;20064;-87
2023/12/26 19:53:20;;;;;;;16.98;12.98;;;11.50;96.70;;;;;;5041389;28;20124;-87
2023/12/26 19:55:50;;;;;;;15.63;12.95;;;11.50;96.70;;;;;;5030585;28;20060;-88
2023/12/26 19:58:19;;;;;;;17.75;12.35;;;11.50;96.70;;;;;;5040525;28;20049;-87
2023/12/26 20:00:48;;;;;;;15.82;11.45;;;11.40;96.70;;;;;;5034316;28;20063;-87
2023/12/26 20:03:18;;;;;;;14.52;10.82;;;11.40;96.70;;;;;;5041639;28;20127;-86
2023/12/26 20:05:55;;;;;;;;;;;11.50;96.70;;;;;;5024864;28;20511;-87
2023/12/26 20:08:27;;;;;;;15.95;10.02;;;11.50;96.70;;;;;;5034607;28;19924;-87
2023/12/26 20:10:56;;;;;;;13.95;9.80;;;11.40;96.70;;;;;;5068936;28;20048;-87
2023/12/26 20:13:25;;;;;;;18.23;13.40;;;11.40;96.70;;;;;;5025757;28;20060;-87
2023/12/26 20:15:54;;;;;;;20.85;14.98;;;11.30;96.70;;;;;;5050220;28;20052;-87
2023/12/26 20:18:23;;;;;;;17.70;11.77;;;11.30;96.70;;;;;;5026013;28;20107;-87
2023/12/26 20:20:58;;;;;;;12.90;9.23;;;11.30;96.70;;;;;;5045732;28;20060;-87
2023/12/26 20:23:27;;;;;;;16.05;10.80;;;11.20;96.70;;;;;;5034239;28;20110;-87
2023/12/26 20:25:56;;;;;;;12.13;9.60;;;11.20;96.70;;;;;;5050176;28;20056;-87
2023/12/26 20:28:24;;;;;;;13.10;10.68;;;11.30;96.70;;;;;;5046747;28;20048;-87
2023/12/26 20:30:54;;;;;;;10.38;8.15;;;11.20;96.70;;;;;;5039882;28;20056;-87
2023/12/26 20:33:23;;;;;;;11.27;8.98;;;11.20;96.70;;;;;;5034682;28;20060;-87
2023/12/26 20:35:51;;;;;;;11.95;10.15;;;11.10;96.70;;;;;;5053708;28;20052;-87
2023/12/26 20:38:25;;;;;;;14.27;11.57;;;11.10;96.70;;;;;;5073665;28;20052;-87
2023/12/26 20:40:55;;;;;;;13.57;11.60;;;11.10;96.70;;;;;;5076721;28;20056;-87
2023/12/26 20:43:24;;;;;;;19.90;12.88;;;11.00;96.70;;;;;;5036130;28;20147;-87
2023/12/26 20:45:52;;;;;;;15.50;12.10;;;11.00;96.70;;;;;;5045637;28;20061;-86
2023/12/26 20:48:22;;;;;;;17.73;12.80;;;11.00;96.70;;;;;;5056120;28;20062;-87
2023/12/26 20:50:52;;;;;;;17.77;12.35;;;11.00;96.70;;;;;;5062932;28;20055;-87
2023/12/26 20:53:23;;;;;;;16.58;12.85;;;10.80;96.70;;;;;;5054508;28;20079;-88
2023/12/26 20:55:52;;;;;;;22.42;16.50;;;10.80;96.70;;;;;;5062996;28;20060;-87
2023/12/26 21:11:51;;;;;;;15.55;11.30;;;10.60;96.70;;;;;;4921500;29;20059;-84
2023/12/26 21:16:00;;;;;;;;;;;;;;;;;;;;;
2023/12/26 21:20:29;;;;;;;10.75;8.07;;;10.40;96.70;;;;;;4788416;29;20142;-86
2023/12/26 21:35:07;;;;;;;20.65;10.10;;;10.30;96.70;;;;;;4879163;29;20154;-86
2023/12/26 22:52:16;;;;;;;23.02;7.05;;;10.10;96.70;;;;;;4892576;29;20103;-90
